Archival Weather

Half Moon Bay

Half Moon Bay, California (KHAF)

Report from: Thursday, September 21, 2023 12:55 PM PDT
Current time: Sunday, July 14, 2024 4:40 AM PDT

Current weather – Weather history – Daily summaries
Weather forecast

Present weatherHaze
Temperature18.0°C (64.4°F)
Dew point13.0°C (55.4°F)
Winds 9 kts (4.6 m/s, 10.4 mph) South (170°)
Visibility5 mi. (8 km)
Clouds Sky clear
Altimeter29.92 in.Hg (1013 mB)
Relative humidity73 %
Density altitude563 ft. (172 m)
Remarks Fully automated report
Automated weather observing station with precipitation discriminator
Flight conditions Visual Meteorological Conditions
Raw dataKHAF 211955Z AUTO 17009KT 5SM HZ CLR 18/13 A2992 RMK AO2
An error has occurred. This application may no longer respond until reloaded. Reload 🗙